Time;durP1;ratioP1;P1;durP2;ratioP2;P2;SDS_P1;SDS_P2;PMS_P1;PMS_P2;Temp;Humidity;BMP_temperature;BMP_pressure;BME280_temperature;BME280_humidity;BME280_pressure;Samples;Min_cycle;Max_cycle;Signal;HPM_P1;HPM_P2
2021/12/20 00:00:59;;;;;;;3.03;1.10;;;;;;;;;;4848562;29;20084;-81
2021/12/20 00:03:25;;;;;;;2.83;0.90;;;;;;;;;;4851006;29;20030;-81
2021/12/20 00:05:50;;;;;;;5.18;0.80;;;;;;;;;;4867667;29;20112;-79
2021/12/20 00:08:16;;;;;;;1.65;0.80;;;;;;;;;;4869903;29;20030;-78
2021/12/20 00:10:41;;;;;;;5.85;1.40;;;;;;;;;;4868954;29;20033;-80
2021/12/20 00:13:06;;;;;;;4.43;0.93;;;;;;;;;;4853790;29;20407;-79
2021/12/20 00:15:31;;;;;;;4.35;1.17;;;;;;;;;;4872087;29;20052;-80
2021/12/20 00:17:57;;;;;;;4.13;1.50;;;;;;;;;;4872023;29;20030;-80
2021/12/20 00:20:22;;;;;;;3.88;1.10;;;;;;;;;;4856009;29;20029;-80
2021/12/20 00:22:47;;;;;;;6.88;1.08;;;;;;;;;;4870079;29;20033;-80
2021/12/20 00:25:13;;;;;;;2.85;1.00;;;;;;;;;;4852104;29;20029;-81
2021/12/20 00:27:39;;;;;;;2.05;0.90;;;;;;;;;;4852295;29;20026;-81
2021/12/20 00:30:08;;;;;;;3.28;0.85;;;;;;;;;;4853001;29;20034;-80
2021/12/20 00:32:34;;;;;;;3.63;0.73;;;;;;;;;;4852399;29;20029;-80
2021/12/20 00:34:59;;;;;;;3.42;0.90;;;;;;;;;;4852469;29;20121;-80
2021/12/20 00:40:21;;;;;;;4.13;0.70;;;;;;;;;;4870240;29;20094;-80
2021/12/20 00:42:55;;;;;;;2.65;0.82;;;;;;;;;;4866623;29;20058;-80
2021/12/20 00:45:23;;;;;;;4.30;0.90;;;;;;;;;;4867977;29;20373;-80
2021/12/20 00:47:48;;;;;;;4.65;1.13;;;;;;;;;;4851080;29;20033;-80
2021/12/20 00:50:16;;;;;;;4.43;1.05;;;;;;;;;;4851938;29;20028;-80
2021/12/20 00:52:42;;;;;;;6.55;1.13;;;;;;;;;;4868269;29;20555;-80
2021/12/20 00:55:09;;;;;;;2.38;1.00;;;;;;;;;;4849866;29;20025;-80
2021/12/20 00:57:34;;;;;;;4.75;0.93;;;;;;;;;;4849440;29;20056;-80
2021/12/20 01:00:00;;;;;;;5.13;1.17;;;;;;;;;;4849034;29;20437;-79
2021/12/20 01:02:25;;;;;;;4.78;0.90;;;;;;;;;;4866486;29;20121;-79
2021/12/20 01:04:51;;;;;;;3.28;0.80;;;;;;;;;;4849758;29;20029;-79
2021/12/20 01:07:16;;;;;;;4.90;1.08;;;;;;;;;;4867673;29;20503;-80
2021/12/20 01:09:41;;;;;;;2.92;0.82;;;;;;;;;;4850056;29;20030;-80
2021/12/20 01:12:14;;;;;;;3.85;1.08;;;;;;;;;;4865215;29;20032;-81
2021/12/20 01:14:39;;;;;;;1.83;0.80;;;;;;;;;;4864989;29;20167;-81
2021/12/20 01:17:05;;;;;;;3.20;1.00;;;;;;;;;;4864614;29;20061;-81
2021/12/20 01:19:32;;;;;;;5.40;1.35;;;;;;;;;;4847431;29;20018;-81
2021/12/20 01:21:57;;;;;;;5.13;1.20;;;;;;;;;;4868033;29;20096;-81
2021/12/20 01:24:23;;;;;;;3.83;0.95;;;;;;;;;;4850876;29;20475;-80
2021/12/20 01:26:48;;;;;;;9.35;0.93;;;;;;;;;;4850848;29;20037;-80
2021/12/20 01:29:13;;;;;;;6.00;1.00;;;;;;;;;;4867639;29;20025;-80
2021/12/20 01:31:39;;;;;;;2.03;0.95;;;;;;;;;;4867568;29;20041;-80
2021/12/20 01:34:04;;;;;;;5.32;1.33;;;;;;;;;;4866728;29;20050;-81
2021/12/20 01:36:29;;;;;;;5.43;1.48;;;;;;;;;;4866371;29;20437;-79
2021/12/20 01:38:54;;;;;;;3.40;0.75;;;;;;;;;;4866911;29;20357;-79
2021/12/20 01:41:19;;;;;;;2.53;0.80;;;;;;;;;;4866617;29;20030;-80
2021/12/20 01:43:45;;;;;;;4.65;1.20;;;;;;;;;;4866964;29;20028;-79
2021/12/20 01:46:11;;;;;;;4.05;0.70;;;;;;;;;;4867096;29;20507;-79
2021/12/20 01:48:38;;;;;;;8.30;2.05;;;;;;;;;;4867573;29;20033;-79
2021/12/20 01:53:33;;;;;;;5.90;0.82;;;;;;;;;;4866553;29;20048;-81
2021/12/20 01:55:59;;;;;;;10.35;1.20;;;;;;;;;;4866198;29;20041;-81
2021/12/20 01:58:27;;;;;;;3.33;0.77;;;;;;;;;;4866318;29;20089;-80
2021/12/20 02:03:34;;;;;;;3.47;0.80;;;;;;;;;;4867053;29;20093;-80
2021/12/20 02:06:02;;;;;;;3.85;0.88;;;;;;;;;;4865930;29;20033;-79
2021/12/20 02:08:31;;;;;;;4.10;0.90;;;;;;;;;;4866681;29;20029;-80
2021/12/20 02:10:58;;;;;;;4.55;0.80;;;;;;;;;;4849626;29;20177;-80
2021/12/20 02:13:28;;;;;;;3.30;1.08;;;;;;;;;;4849054;29;20032;-80
2021/12/20 02:15:53;;;;;;;7.82;1.25;;;;;;;;;;4865727;29;20041;-79
2021/12/20 02:18:19;;;;;;;5.78;1.10;;;;;;;;;;4849218;29;20025;-80
2021/12/20 02:20:44;;;;;;;4.18;0.88;;;;;;;;;;4850033;29;20029;-81
2021/12/20 02:23:09;;;;;;;5.20;0.90;;;;;;;;;;4866429;29;20065;-80
2021/12/20 02:25:36;;;;;;;2.13;0.55;;;;;;;;;;4865737;29;20021;-81
2021/12/20 02:28:08;;;;;;;5.35;1.20;;;;;;;;;;4866005;29;20085;-81
2021/12/20 02:38:31;;;;;;;2.90;0.77;;;;;;;;;;4874973;29;20058;-80
2021/12/20 02:41:00;;;;;;;1.92;0.70;;;;;;;;;;4881417;29;20034;-80
2021/12/20 02:43:28;;;;;;;4.63;0.73;;;;;;;;;;4878500;29;20033;-82
2021/12/20 02:45:57;;;;;;;5.55;1.00;;;;;;;;;;4851210;29;20096;-80
2021/12/20 02:48:22;;;;;;;3.53;0.90;;;;;;;;;;4866527;29;20033;-80
2021/12/20 02:50:48;;;;;;;3.90;1.05;;;;;;;;;;4853298;29;20452;-80
2021/12/20 02:53:13;;;;;;;4.15;0.98;;;;;;;;;;4871103;29;20372;-80
2021/12/20 02:55:38;;;;;;;8.40;1.30;;;;;;;;;;4870754;29;20029;-81
2021/12/20 02:58:03;;;;;;;2.90;0.88;;;;;;;;;;4870918;29;20029;-81
2021/12/20 03:00:28;;;;;;;3.78;0.75;;;;;;;;;;4850337;29;20024;-82
2021/12/20 03:02:54;;;;;;;2.92;1.17;;;;;;;;;;4867410;29;20045;-81
2021/12/20 03:05:19;;;;;;;3.40;1.00;;;;;;;;;;4857342;29;20026;-80
2021/12/20 03:07:50;;;;;;;6.28;1.38;;;;;;;;;;4874143;29;20034;-81
2021/12/20 03:10:18;;;;;;;3.65;1.17;;;;;;;;;;4856506;29;20053;-80
2021/12/20 03:12:43;;;;;;;5.50;1.10;;;;;;;;;;4872049;29;20448;-79
2021/12/20 03:15:14;;;;;;;4.68;1.10;;;;;;;;;;4873739;29;20040;-82
2021/12/20 03:17:39;;;;;;;5.72;1.02;;;;;;;;;;4872276;29;20029;-80
2021/12/20 03:20:06;;;;;;;4.30;1.20;;;;;;;;;;4872954;29;20033;-81
2021/12/20 03:22:31;;;;;;;4.25;1.08;;;;;;;;;;4856319;29;20439;-81
2021/12/20 03:24:57;;;;;;;5.88;1.42;;;;;;;;;;4871867;29;20026;-81
2021/12/20 03:27:22;;;;;;;4.75;1.27;;;;;;;;;;4871353;29;20052;-79
2021/12/20 03:29:47;;;;;;;1.92;1.02;;;;;;;;;;4853303;29;20029;-82
2021/12/20 03:32:13;;;;;;;5.68;1.40;;;;;;;;;;4852181;29;20033;-81
2021/12/20 03:34:38;;;;;;;3.60;1.02;;;;;;;;;;4871464;29;20036;-80
2021/12/20 03:37:03;;;;;;;3.42;1.20;;;;;;;;;;4873835;29;20025;-80
2021/12/20 03:39:28;;;;;;;1.38;0.82;;;;;;;;;;4857346;29;20093;-81
2021/12/20 03:41:54;;;;;;;7.32;1.15;;;;;;;;;;4873676;29;20048;-80
2021/12/20 03:44:19;;;;;;;4.13;1.15;;;;;;;;;;4867965;29;20025;-79
2021/12/20 03:46:44;;;;;;;5.43;1.50;;;;;;;;;;4867398;29;20041;-81
2021/12/20 03:49:10;;;;;;;5.85;1.45;;;;;;;;;;4866581;29;20060;-79
2021/12/20 03:51:36;;;;;;;3.63;1.10;;;;;;;;;;4848617;29;20433;-79
2021/12/20 03:54:02;;;;;;;5.10;1.13;;;;;;;;;;4865139;29;20044;-80
2021/12/20 03:56:28;;;;;;;2.05;0.88;;;;;;;;;;4867184;29;20065;-80
2021/12/20 03:58:53;;;;;;;5.65;1.23;;;;;;;;;;4867525;29;20026;-79
2021/12/20 04:01:18;;;;;;;5.85;0.77;;;;;;;;;;4849524;29;20045;-79
2021/12/20 04:03:44;;;;;;;2.15;0.90;;;;;;;;;;4848526;29;20032;-79
2021/12/20 04:06:11;;;;;;;4.82;0.90;;;;;;;;;;4866367;29;20073;-80
2021/12/20 04:08:37;;;;;;;4.43;1.13;;;;;;;;;;4867945;29;20031;-80
2021/12/20 04:11:03;;;;;;;3.92;1.17;;;;;;;;;;4865531;29;20030;-79
2021/12/20 04:13:29;;;;;;;5.57;1.05;;;;;;;;;;4864273;29;20033;-80
2021/12/20 04:15:54;;;;;;;6.20;0.95;;;;;;;;;;4864395;29;20041;-80
2021/12/20 04:18:20;;;;;;;3.55;0.80;;;;;;;;;;4866803;29;20036;-80
2021/12/20 04:20:46;;;;;;;3.35;1.10;;;;;;;;;;4864868;29;20116;-79
2021/12/20 04:23:11;;;;;;;3.05;0.90;;;;;;;;;;4864202;29;20069;-80
2021/12/20 04:25:36;;;;;;;4.40;0.95;;;;;;;;;;4865756;29;20089;-78
2021/12/20 04:28:02;;;;;;;7.55;1.05;;;;;;;;;;4865615;29;20029;-78
2021/12/20 04:30:30;;;;;;;3.38;1.15;;;;;;;;;;4848509;29;20026;-79
2021/12/20 04:32:55;;;;;;;9.25;1.40;;;;;;;;;;4848886;29;20025;-79
2021/12/20 04:35:21;;;;;;;2.92;0.90;;;;;;;;;;4848373;29;20605;-80
2021/12/20 04:37:47;;;;;;;3.33;0.90;;;;;;;;;;4863982;29;20033;-80
2021/12/20 04:40:18;;;;;;;4.88;0.80;;;;;;;;;;4863867;29;20032;-78
2021/12/20 04:42:43;;;;;;;6.07;1.08;;;;;;;;;;4847168;29;20408;-79
2021/12/20 04:45:09;;;;;;;2.63;0.90;;;;;;;;;;4863788;29;20115;-79
2021/12/20 04:47:34;;;;;;;6.18;1.00;;;;;;;;;;4863174;29;20034;-82
2021/12/20 04:50:00;;;;;;;3.75;0.82;;;;;;;;;;4864032;29;20033;-79
2021/12/20 04:52:26;;;;;;;4.75;1.00;;;;;;;;;;4863191;29;20025;-79
2021/12/20 04:54:51;;;;;;;4.03;1.00;;;;;;;;;;4863850;29;20060;-78
2021/12/20 04:57:17;;;;;;;5.35;1.13;;;;;;;;;;4864103;29;20419;-82
2021/12/20 04:59:43;;;;;;;2.33;0.73;;;;;;;;;;4847597;29;20029;-81
2021/12/20 05:02:08;;;;;;;7.18;0.90;;;;;;;;;;4863691;29;20037;-80
2021/12/20 05:04:33;;;;;;;3.97;0.90;;;;;;;;;;4847291;29;20477;-82
2021/12/20 05:06:58;;;;;;;5.10;1.00;;;;;;;;;;4863636;29;20088;-80
2021/12/20 05:09:28;;;;;;;2.28;0.57;;;;;;;;;;4863426;29;20036;-80
2021/12/20 05:12:01;;;;;;;4.63;0.95;;;;;;;;;;4863490;29;20068;-80
2021/12/20 05:14:26;;;;;;;4.03;1.13;;;;;;;;;;4864972;29;20037;-80
2021/12/20 05:16:51;;;;;;;3.88;0.77;;;;;;;;;;4862968;29;20034;-80
2021/12/20 05:19:16;;;;;;;6.72;0.80;;;;;;;;;;4864465;29;20022;-80
2021/12/20 05:21:42;;;;;;;2.00;0.80;;;;;;;;;;4864462;29;20125;-80
2021/12/20 05:24:07;;;;;;;3.83;0.95;;;;;;;;;;4848286;29;20034;-81
2021/12/20 05:26:32;;;;;;;7.35;1.20;;;;;;;;;;4863621;29;20472;-80
2021/12/20 05:28:58;;;;;;;5.38;1.23;;;;;;;;;;4863557;29;20026;-81
2021/12/20 05:31:23;;;;;;;2.05;1.08;;;;;;;;;;4847517;29;20025;-80
2021/12/20 05:33:48;;;;;;;1.40;0.65;;;;;;;;;;4847500;29;20029;-81
2021/12/20 05:36:13;;;;;;;3.80;0.88;;;;;;;;;;4864841;29;20490;-81
2021/12/20 05:38:39;;;;;;;4.53;1.00;;;;;;;;;;4865205;29;20396;-80
2021/12/20 05:41:04;;;;;;;7.05;0.98;;;;;;;;;;4865370;29;20029;-81
2021/12/20 05:43:29;;;;;;;1.20;0.52;;;;;;;;;;4865553;29;20029;-82
2021/12/20 05:45:54;;;;;;;4.07;1.00;;;;;;;;;;4864785;29;20036;-82
2021/12/20 05:48:20;;;;;;;2.70;1.20;;;;;;;;;;4864085;29;20037;-82
2021/12/20 05:50:45;;;;;;;5.10;0.93;;;;;;;;;;4864233;29;20101;-80
2021/12/20 05:53:10;;;;;;;3.10;0.88;;;;;;;;;;4863551;29;20037;-78
2021/12/20 05:55:35;;;;;;;5.30;1.10;;;;;;;;;;4863524;29;20049;-82
2021/12/20 05:58:01;;;;;;;8.45;1.10;;;;;;;;;;4863627;29;20535;-79
2021/12/20 06:00:26;;;;;;;10.75;1.30;;;;;;;;;;4862497;29;20026;-79
2021/12/20 06:02:52;;;;;;;4.15;1.17;;;;;;;;;;4863118;29;20033;-80
2021/12/20 06:05:19;;;;;;;4.35;0.80;;;;;;;;;;4862785;29;20064;-80
2021/12/20 06:07:44;;;;;;;4.63;1.13;;;;;;;;;;4866247;29;20483;-80
2021/12/20 06:10:13;;;;;;;6.03;1.20;;;;;;;;;;4850246;29;20040;-80
2021/12/20 06:12:40;;;;;;;3.03;1.35;;;;;;;;;;4866400;29;20037;-79
2021/12/20 06:15:06;;;;;;;4.13;1.02;;;;;;;;;;4849856;29;20033;-81
2021/12/20 06:17:35;;;;;;;4.45;1.30;;;;;;;;;;4849750;29;20116;-81
2021/12/20 06:20:05;;;;;;;4.00;1.20;;;;;;;;;;4865896;29;20029;-79
2021/12/20 06:22:30;;;;;;;3.25;1.00;;;;;;;;;;4867125;29;20560;-81
2021/12/20 06:24:55;;;;;;;5.75;1.38;;;;;;;;;;4849105;29;20175;-79
2021/12/20 06:27:21;;;;;;;5.53;1.15;;;;;;;;;;4849011;29;20092;-79
2021/12/20 06:29:46;;;;;;;8.40;1.25;;;;;;;;;;4848773;29;20034;-80
2021/12/20 06:32:11;;;;;;;9.50;1.45;;;;;;;;;;4865834;29;20146;-80
2021/12/20 06:34:39;;;;;;;2.60;1.10;;;;;;;;;;4848728;29;20025;-80
2021/12/20 06:37:04;;;;;;;10.18;4.00;;;;;;;;;;4865662;29;20029;-80
2021/12/20 06:39:31;;;;;;;5.40;1.25;;;;;;;;;;4865753;29;20471;-80
2021/12/20 06:41:56;;;;;;;7.72;1.08;;;;;;;;;;4865099;29;20025;-79
2021/12/20 06:44:22;;;;;;;2.70;0.98;;;;;;;;;;4865445;29;20182;-80
2021/12/20 06:46:47;;;;;;;3.47;1.00;;;;;;;;;;4866074;29;20037;-79
2021/12/20 06:49:12;;;;;;;3.28;0.70;;;;;;;;;;4865051;29;20117;-80
2021/12/20 06:51:42;;;;;;;3.63;0.70;;;;;;;;;;4865340;29;20032;-80
2021/12/20 06:54:09;;;;;;;6.10;1.10;;;;;;;;;;4866069;29;20021;-80
2021/12/20 06:56:34;;;;;;;6.93;1.58;;;;;;;;;;4849445;29;20029;-81
2021/12/20 06:58:59;;;;;;;9.30;1.38;;;;;;;;;;4866261;29;20433;-81
2021/12/20 07:01:25;;;;;;;5.53;1.33;;;;;;;;;;4873696;29;20056;-80
2021/12/20 07:03:50;;;;;;;4.10;1.35;;;;;;;;;;4872161;29;20030;-81
2021/12/20 07:06:15;;;;;;;6.15;1.98;;;;;;;;;;4854034;29;20449;-82
2021/12/20 07:08:41;;;;;;;6.03;1.42;;;;;;;;;;4849757;29;20097;-82
2021/12/20 07:11:08;;;;;;;8.10;1.50;;;;;;;;;;4849313;29;20021;-81
2021/12/20 07:13:33;;;;;;;7.00;1.48;;;;;;;;;;4865851;29;20053;-81
2021/12/20 07:15:58;;;;;;;5.22;1.58;;;;;;;;;;4865943;29;20484;-80
2021/12/20 07:18:23;;;;;;;6.90;1.67;;;;;;;;;;4864519;29;20373;-81
2021/12/20 07:20:49;;;;;;;6.00;1.70;;;;;;;;;;4847946;29;20029;-81
2021/12/20 07:23:14;;;;;;;11.32;1.80;;;;;;;;;;4848133;29;20186;-80
2021/12/20 07:25:39;;;;;;;5.20;1.42;;;;;;;;;;4864622;29;20049;-80
2021/12/20 07:28:05;;;;;;;3.78;1.42;;;;;;;;;;4865527;29;20076;-79
2021/12/20 07:30:30;;;;;;;3.67;1.30;;;;;;;;;;4848819;29;20040;-81
2021/12/20 07:32:56;;;;;;;4.07;1.40;;;;;;;;;;4864542;29;20030;-79
2021/12/20 07:35:22;;;;;;;4.47;1.10;;;;;;;;;;4849429;29;20449;-81
2021/12/20 07:37:48;;;;;;;7.28;1.42;;;;;;;;;;4866945;29;20552;-80
2021/12/20 07:40:13;;;;;;;8.05;1.73;;;;;;;;;;4868408;29;20018;-81
2021/12/20 07:42:39;;;;;;;5.25;1.52;;;;;;;;;;4850719;29;20399;-81
2021/12/20 07:45:06;;;;;;;5.03;1.20;;;;;;;;;;4868738;29;20057;-81
2021/12/20 07:47:31;;;;;;;5.18;1.30;;;;;;;;;;4869772;29;20128;-81
2021/12/20 07:49:56;;;;;;;6.38;1.70;;;;;;;;;;4867298;29;20480;-82
2021/12/20 07:52:22;;;;;;;6.20;1.40;;;;;;;;;;4865529;29;20441;-81
2021/12/20 07:54:47;;;;;;;8.38;1.63;;;;;;;;;;4849471;29;20116;-80
2021/12/20 07:57:12;;;;;;;5.93;1.33;;;;;;;;;;4852053;29;20076;-80
2021/12/20 07:59:37;;;;;;;5.80;1.20;;;;;;;;;;4867828;29;20029;-81
2021/12/20 08:02:03;;;;;;;12.40;1.38;;;;;;;;;;4867077;29;20033;-81
2021/12/20 08:04:28;;;;;;;6.18;1.40;;;;;;;;;;4869885;29;20034;-81
2021/12/20 08:06:53;;;;;;;4.25;1.52;;;;;;;;;;4866837;29;20033;-79
2021/12/20 08:09:18;;;;;;;6.55;1.52;;;;;;;;;;4849881;29;20026;-82
2021/12/20 08:11:44;;;;;;;7.32;1.45;;;;;;;;;;4867718;29;20030;-81
2021/12/20 08:14:10;;;;;;;6.43;1.40;;;;;;;;;;4865717;29;20547;-82
2021/12/20 08:16:35;;;;;;;6.50;1.90;;;;;;;;;;4865920;29;20089;-77
2021/12/20 08:19:00;;;;;;;7.93;2.22;;;;;;;;;;4848649;29;20025;-80
2021/12/20 08:21:26;;;;;;;8.10;2.00;;;;;;;;;;4869665;29;20054;-81
2021/12/20 08:23:51;;;;;;;7.45;2.10;;;;;;;;;;4873365;29;20029;-80
2021/12/20 08:26:17;;;;;;;7.78;2.17;;;;;;;;;;4866502;29;20048;-80
2021/12/20 08:28:43;;;;;;;8.35;2.10;;;;;;;;;;4856304;29;20033;-81
2021/12/20 08:31:08;;;;;;;6.65;1.98;;;;;;;;;;4857806;29;20058;-80
2021/12/20 08:33:34;;;;;;;2.97;1.10;;;;;;;;;;4858677;29;20400;-78
2021/12/20 08:36:04;;;;;;;5.03;1.38;;;;;;;;;;4867564;29;20056;-81
2021/12/20 08:38:30;;;;;;;6.72;1.58;;;;;;;;;;4865028;29;20104;-82
2021/12/20 08:40:55;;;;;;;5.90;1.90;;;;;;;;;;4848278;29;20170;-81
2021/12/20 08:43:21;;;;;;;3.25;1.20;;;;;;;;;;4850490;29;20029;-82
2021/12/20 08:45:47;;;;;;;6.55;1.92;;;;;;;;;;4867498;29;20030;-80
2021/12/20 08:48:12;;;;;;;7.22;1.73;;;;;;;;;;4869623;29;20090;-80
2021/12/20 08:50:37;;;;;;;6.70;1.63;;;;;;;;;;4870864;29;20032;-80
2021/12/20 08:53:03;;;;;;;6.65;1.67;;;;;;;;;;4853325;29;20032;-80
2021/12/20 08:55:28;;;;;;;5.85;1.63;;;;;;;;;;4853730;29;20033;-80
2021/12/20 08:57:54;;;;;;;12.32;2.05;;;;;;;;;;4870167;29;20057;-79
2021/12/20 09:00:23;;;;;;;7.78;1.90;;;;;;;;;;4853821;29;20025;-80
2021/12/20 09:02:49;;;;;;;5.55;1.20;;;;;;;;;;4871854;29;20058;-80
2021/12/20 09:05:15;;;;;;;5.15;1.90;;;;;;;;;;4870613;29;20029;-80
2021/12/20 09:07:41;;;;;;;12.52;1.95;;;;;;;;;;4868485;29;20037;-80
2021/12/20 09:10:11;;;;;;;6.22;1.85;;;;;;;;;;4869082;29;20377;-81
2021/12/20 09:12:37;;;;;;;6.60;1.48;;;;;;;;;;4868836;29;20048;-79
2021/12/20 09:15:04;;;;;;;11.23;2.13;;;;;;;;;;4852935;29;20567;-80
2021/12/20 09:17:29;;;;;;;6.53;2.03;;;;;;;;;;4868751;29;20033;-80
2021/12/20 09:19:54;;;;;;;6.38;1.95;;;;;;;;;;4850471;29;20029;-79
2021/12/20 09:22:26;;;;;;;7.50;1.73;;;;;;;;;;4848980;29;20081;-79
2021/12/20 09:24:51;;;;;;;9.10;2.00;;;;;;;;;;4849846;29;20025;-80
2021/12/20 09:27:16;;;;;;;6.85;1.88;;;;;;;;;;4866523;29;20093;-78
2021/12/20 09:29:42;;;;;;;3.63;1.20;;;;;;;;;;4867615;29;20038;-78
2021/12/20 09:32:07;;;;;;;2.80;1.42;;;;;;;;;;4866921;29;20487;-79
2021/12/20 09:34:32;;;;;;;5.40;1.90;;;;;;;;;;4866093;29;20033;-80
2021/12/20 09:37:03;;;;;;;10.65;2.92;;;;;;;;;;4865543;29;20196;-79
2021/12/20 09:39:32;;;;;;;6.80;2.30;;;;;;;;;;4865307;29;20049;-79
2021/12/20 09:42:00;;;;;;;9.27;1.75;;;;;;;;;;4868305;29;20436;-79
2021/12/20 09:44:27;;;;;;;5.63;1.88;;;;;;;;;;4852633;29;20487;-80
2021/12/20 09:46:57;;;;;;;5.97;2.10;;;;;;;;;;4869135;29;20057;-79
2021/12/20 09:49:22;;;;;;;3.83;1.65;;;;;;;;;;4870390;29;20101;-79
2021/12/20 09:51:49;;;;;;;8.10;1.85;;;;;;;;;;4869822;29;20108;-79
2021/12/20 09:54:14;;;;;;;3.90;1.42;;;;;;;;;;4870808;29;20037;-78
2021/12/20 09:56:40;;;;;;;6.95;2.00;;;;;;;;;;4850142;29;20025;-80
2021/12/20 09:59:12;;;;;;;5.88;2.20;;;;;;;;;;4866913;29;20125;-81
2021/12/20 10:01:38;;;;;;;7.20;1.85;;;;;;;;;;4867997;29;20114;-79
2021/12/20 10:04:04;;;;;;;6.38;2.17;;;;;;;;;;4852043;29;20092;-78
2021/12/20 10:06:30;;;;;;;5.32;2.00;;;;;;;;;;4868232;29;20125;-79
2021/12/20 10:08:58;;;;;;;8.70;2.03;;;;;;;;;;4868369;29;20054;-80
2021/12/20 10:11:29;;;;;;;5.47;2.03;;;;;;;;;;4868658;29;20058;-80
2021/12/20 10:14:06;;;;;;;7.70;2.08;;;;;;;;;;4867271;29;20081;-80
2021/12/20 10:16:34;;;;;;;10.43;1.80;;;;;;;;;;4863814;29;20026;-81
2021/12/20 10:19:00;;;;;;;7.15;1.90;;;;;;;;;;4864866;29;20065;-79
2021/12/20 10:21:40;;;;;;;9.13;1.63;;;;;;;;;;4850236;29;20029;-79
2021/12/20 10:24:06;;;;;;;5.15;1.52;;;;;;;;;;4866911;29;20025;-80
2021/12/20 10:26:42;;;;;;;6.18;1.67;;;;;;;;;;4866254;29;20060;-80
2021/12/20 10:29:21;;;;;;;6.20;2.08;;;;;;;;;;4866711;29;20033;-80
2021/12/20 10:31:48;;;;;;;8.63;1.85;;;;;;;;;;4865236;29;20056;-80
2021/12/20 10:34:14;;;;;;;9.43;2.15;;;;;;;;;;4865287;29;20494;-79
2021/12/20 10:36:54;;;;;;;6.20;1.77;;;;;;;;;;4865271;29;20037;-79
2021/12/20 10:39:38;;;;;;;4.15;1.17;;;;;;;;;;4865848;29;20170;-80
2021/12/20 10:42:24;;;;;;;7.65;1.77;;;;;;;;;;4865239;29;20396;-80
2021/12/20 10:45:09;;;;;;;7.55;2.30;;;;;;;;;;4850888;29;20121;-80
2021/12/20 10:47:35;;;;;;;9.63;2.45;;;;;;;;;;4867297;29;20026;-81
2021/12/20 10:50:21;;;;;;;6.18;1.75;;;;;;;;;;4869667;29;20025;-80
2021/12/20 10:52:46;;;;;;;6.05;1.77;;;;;;;;;;4852611;29;20037;-80
2021/12/20 10:55:12;;;;;;;5.22;1.60;;;;;;;;;;4835895;29;967108;-75
2021/12/20 10:57:37;;;;;;;12.40;2.25;;;;;;;;;;4846532;29;20080;-75
2021/12/20 11:00:17;;;;;;;6.63;1.70;;;;;;;;;;4863673;29;20081;-77
2021/12/20 11:05:51;;;;;;;6.10;1.67;;;;;;;;;;4866581;29;20087;-81
2021/12/20 11:11:13;;;;;;;11.23;1.75;;;;;;;;;;4872128;29;20052;-79
2021/12/20 11:13:39;;;;;;;8.43;2.10;;;;;;;;;;4870440;29;20025;-80
2021/12/20 11:16:31;;;;;;;4.45;1.40;;;;;;;;;;4848544;29;20148;-77
2021/12/20 11:19:13;;;;;;;7.43;1.70;;;;;;;;;;4874510;29;20081;-80
2021/12/20 11:21:58;;;;;;;9.45;2.00;;;;;;;;;;4861965;29;20032;-81
2021/12/20 11:24:27;;;;;;;;;;;;;;;;;;4878503;29;20097;-81
2021/12/20 11:26:52;;;;;;;6.70;1.90;;;;;;;;;;4869996;29;19922;-80
2021/12/20 11:29:19;;;;;;;5.20;2.08;;;;;;;;;;4867568;29;20541;-82
2021/12/20 11:31:45;;;;;;;7.07;2.00;;;;;;;;;;4849074;29;20036;-81
2021/12/20 11:34:12;;;;;;;4.72;1.55;;;;;;;;;;4848165;29;20398;-77
2021/12/20 11:36:37;;;;;;;6.07;2.00;;;;;;;;;;4868859;29;20044;-80
2021/12/20 11:39:05;;;;;;;5.18;1.60;;;;;;;;;;4850891;29;20029;-79
2021/12/20 11:41:30;;;;;;;4.18;1.10;;;;;;;;;;4868971;29;20081;-79
2021/12/20 11:43:58;;;;;;;10.15;2.33;;;;;;;;;;4865795;29;20403;-77
2021/12/20 11:46:29;;;;;;;6.68;1.75;;;;;;;;;;4846229;29;20061;-77
2021/12/20 11:48:56;;;;;;;5.53;2.00;;;;;;;;;;4864143;29;20116;-74
2021/12/20 11:51:21;;;;;;;6.22;1.73;;;;;;;;;;4861888;29;20034;-74
2021/12/20 11:53:47;;;;;;;9.20;1.83;;;;;;;;;;4866075;29;20033;-78
2021/12/20 11:56:12;;;;;;;3.28;1.33;;;;;;;;;;4852222;29;20128;-76
2021/12/20 11:58:45;;;;;;;9.82;2.25;;;;;;;;;;4867525;29;20040;-82
2021/12/20 12:01:16;;;;;;;7.87;1.70;;;;;;;;;;4851720;29;20033;-81
2021/12/20 12:03:53;;;;;;;6.32;1.60;;;;;;;;;;4855063;29;20147;-80
2021/12/20 12:06:27;;;;;;;3.05;1.48;;;;;;;;;;4871871;29;20033;-77
2021/12/20 12:08:56;;;;;;;8.43;2.05;;;;;;;;;;4864919;29;20082;-77
2021/12/20 12:11:24;;;;;;;2.78;1.08;;;;;;;;;;4869732;29;20077;-79
2021/12/20 12:14:04;;;;;;;7.97;1.90;;;;;;;;;;4873726;29;20468;-80
2021/12/20 12:16:58;;;;;;;6.38;1.77;;;;;;;;;;4873774;29;20105;-80
2021/12/20 12:19:42;;;;;;;4.93;1.50;;;;;;;;;;4857646;29;20029;-80
2021/12/20 12:22:25;;;;;;;2.30;1.30;;;;;;;;;;4873767;29;20059;-80
2021/12/20 12:24:52;;;;;;;8.15;1.70;;;;;;;;;;4856176;29;20391;-78
2021/12/20 12:27:22;;;;;;;4.80;1.83;;;;;;;;;;4856450;29;20040;-79
2021/12/20 12:30:13;;;;;;;5.35;1.50;;;;;;;;;;4873871;29;20049;-78
2021/12/20 12:33:02;;;;;;;3.58;1.40;;;;;;;;;;4872993;29;20360;-80
2021/12/20 12:35:39;;;;;;;6.88;1.90;;;;;;;;;;4865690;29;20101;-79
2021/12/20 12:38:17;;;;;;;2.55;1.13;;;;;;;;;;4858076;29;20036;-78
2021/12/20 12:40:46;;;;;;;5.80;1.85;;;;;;;;;;4857615;29;20083;-80
2021/12/20 12:43:15;;;;;;;5.68;2.22;;;;;;;;;;4873759;29;20033;-81
2021/12/20 12:45:51;;;;;;;7.50;2.05;;;;;;;;;;4855973;29;20029;-79
2021/12/20 12:48:43;;;;;;;6.15;1.67;;;;;;;;;;4874375;29;20036;-80
2021/12/20 12:51:11;;;;;;;9.82;1.40;;;;;;;;;;4872670;29;20033;-80
2021/12/20 12:53:42;;;;;;;7.32;1.38;;;;;;;;;;4872390;29;20029;-80
2021/12/20 12:56:40;;;;;;;4.38;1.27;;;;;;;;;;4872273;29;20037;-80
2021/12/20 12:59:11;;;;;;;5.55;1.65;;;;;;;;;;4840265;29;20040;-80
2021/12/20 13:01:49;;;;;;;3.22;1.40;;;;;;;;;;4873414;29;20025;-80
2021/12/20 13:04:15;;;;;;;4.20;1.20;;;;;;;;;;4856324;29;20379;-80
2021/12/20 13:06:40;;;;;;;2.28;1.40;;;;;;;;;;4874489;29;20104;-80
2021/12/20 13:09:05;;;;;;;3.50;1.20;;;;;;;;;;4857570;29;20044;-80
2021/12/20 13:11:31;;;;;;;4.43;1.35;;;;;;;;;;4857189;29;20029;-79
2021/12/20 13:14:15;;;;;;;4.45;1.30;;;;;;;;;;4873722;29;20026;-79
2021/12/20 13:16:59;;;;;;;8.07;1.48;;;;;;;;;;4877102;29;20029;-80
2021/12/20 13:19:34;;;;;;;3.45;1.60;;;;;;;;;;4860654;29;20447;-80
2021/12/20 13:22:01;;;;;;;8.88;1.67;;;;;;;;;;4878389;29;20026;-79
2021/12/20 13:24:30;;;;;;;2.90;1.58;;;;;;;;;;4878727;29;20037;-79
2021/12/20 13:27:06;;;;;;;5.40;1.40;;;;;;;;;;4879199;29;20040;-80
2021/12/20 13:29:31;;;;;;;3.35;1.42;;;;;;;;;;4857930;29;20029;-78
2021/12/20 13:32:10;;;;;;;4.13;1.40;;;;;;;;;;4881204;29;20036;-80
2021/12/20 13:34:35;;;;;;;6.13;1.40;;;;;;;;;;4881440;29;20032;-80
2021/12/20 13:37:08;;;;;;;3.70;1.23;;;;;;;;;;4880852;29;20021;-80
2021/12/20 13:39:34;;;;;;;4.43;1.48;;;;;;;;;;4880661;29;20057;-79
2021/12/20 13:42:09;;;;;;;5.88;1.40;;;;;;;;;;4880868;29;20404;-79
2021/12/20 13:44:36;;;;;;;2.53;1.20;;;;;;;;;;4880793;29;20041;-79
2021/12/20 13:47:05;;;;;;;6.00;1.48;;;;;;;;;;4880177;29;20033;-80
2021/12/20 13:49:31;;;;;;;2.97;1.38;;;;;;;;;;4880675;29;20036;-79
2021/12/20 13:52:10;;;;;;;5.68;1.95;;;;;;;;;;4879351;29;20037;-79
2021/12/20 13:54:41;;;;;;;6.82;1.40;;;;;;;;;;4880055;29;20025;-79
2021/12/20 13:57:24;;;;;;;10.52;1.98;;;;;;;;;;4878080;29;20044;-79
2021/12/20 13:59:56;;;;;;;5.00;1.55;;;;;;;;;;4863768;29;20047;-79
2021/12/20 14:02:39;;;;;;;3.55;0.93;;;;;;;;;;4879607;29;20049;-79
2021/12/20 14:05:13;;;;;;;7.22;1.20;;;;;;;;;;4880490;29;20047;-79
2021/12/20 14:07:43;;;;;;;5.07;1.60;;;;;;;;;;4880151;29;20453;-80
2021/12/20 14:10:18;;;;;;;4.28;1.40;;;;;;;;;;4864043;29;20033;-80
2021/12/20 14:12:47;;;;;;;6.65;1.80;;;;;;;;;;4880942;29;20055;-79
2021/12/20 14:15:17;;;;;;;6.65;1.25;;;;;;;;;;4881568;29;20037;-79
2021/12/20 14:18:11;;;;;;;6.93;1.67;;;;;;;;;;4864666;29;20029;-79
2021/12/20 14:20:49;;;;;;;3.28;1.50;;;;;;;;;;4842552;29;20033;-79
2021/12/20 14:23:14;;;;;;;4.90;1.50;;;;;;;;;;4879610;29;20009;-79
2021/12/20 14:25:42;;;;;;;11.33;1.60;;;;;;;;;;4880446;29;20523;-79
2021/12/20 14:28:12;;;;;;;5.15;1.55;;;;;;;;;;4862518;29;20064;-80
2021/12/20 14:30:50;;;;;;;7.10;1.70;;;;;;;;;;4862085;29;20029;-80
2021/12/20 14:33:26;;;;;;;4.13;1.67;;;;;;;;;;4861499;29;20049;-80
2021/12/20 14:36:01;;;;;;;6.60;1.80;;;;;;;;;;4877088;29;20033;-81
2021/12/20 14:38:37;;;;;;;7.22;1.70;;;;;;;;;;4877221;29;20032;-79
2021/12/20 14:41:11;;;;;;;10.55;1.70;;;;;;;;;;4860490;29;20037;-80
2021/12/20 14:43:36;;;;;;;;;;;;;;;;;;4860511;29;20055;-79
2021/12/20 14:46:10;;;;;;;5.97;1.90;;;;;;;;;;4876421;29;19967;-80
2021/12/20 14:48:45;;;;;;;;;;;;;;;;;;4874951;29;20030;-80
2021/12/20 14:51:25;;;;;;;6.82;1.80;;;;;;;;;;4875100;29;19911;-80
2021/12/20 14:54:06;;;;;;;5.45;1.48;;;;;;;;;;4859033;29;20058;-79
2021/12/20 14:56:31;;;;;;;5.47;1.83;;;;;;;;;;4874861;29;20072;-80
2021/12/20 14:58:56;;;;;;;6.30;1.38;;;;;;;;;;4874237;29;20029;-80
2021/12/20 15:01:22;;;;;;;10.25;1.48;;;;;;;;;;4858705;29;20594;-80
2021/12/20 15:03:47;;;;;;;5.57;1.98;;;;;;;;;;4875031;29;20352;-80
2021/12/20 15:06:13;;;;;;;5.38;1.55;;;;;;;;;;4874894;29;20037;-78
2021/12/20 15:08:38;;;;;;;4.97;1.65;;;;;;;;;;4857563;29;20032;-80
2021/12/20 15:11:04;;;;;;;3.80;1.67;;;;;;;;;;4857428;29;20025;-79